createdAt,value
2018-11-26T00:00:29.880Z,68.33
2018-11-26T00:02:59.888Z,68.17
2018-11-26T00:05:29.797Z,67.73
2018-11-26T00:07:59.767Z,68.90
2018-11-26T00:10:40.484Z,70.03
2018-11-26T00:13:10.313Z,67.40
2018-11-26T00:15:40.235Z,67.37
2018-11-26T00:18:10.164Z,66.63
2018-11-26T00:20:40.150Z,66.83
2018-11-26T00:23:10.089Z,67.57
2018-11-26T00:25:40.149Z,70.30
2018-11-26T00:28:10.123Z,66.13
2018-11-26T00:30:40.243Z,66.43
2018-11-26T00:33:10.191Z,70.00
2018-11-26T00:35:40.199Z,70.27
2018-11-26T00:38:10.181Z,70.37
2018-11-26T00:40:40.170Z,69.80
2018-11-26T00:43:09.943Z,70.30
2018-11-26T00:45:40.063Z,70.10
2018-11-26T00:48:10.020Z,69.73
2018-11-26T00:50:39.890Z,67.17
2018-11-26T00:53:09.805Z,70.60
2018-11-26T00:55:39.835Z,69.67
2018-11-26T00:58:09.798Z,69.37
2018-11-26T01:00:39.770Z,69.40
2018-11-26T01:03:10.854Z,70.93
2018-11-26T01:05:41.721Z,72.23
2018-11-26T01:08:11.768Z,71.87
2018-11-26T01:10:41.633Z,67.87
2018-11-26T01:13:11.438Z,67.27
2018-11-26T01:15:41.429Z,72.30
2018-11-26T01:18:11.387Z,69.27
2018-11-26T01:20:41.412Z,71.30
2018-11-26T01:23:11.432Z,71.97
2018-11-26T01:25:41.469Z,68.70
2018-11-26T01:28:11.362Z,69.63
2018-11-26T01:30:41.216Z,71.73
2018-11-26T01:33:11.027Z,71.63
2018-11-26T01:35:41.039Z,69.03
2018-11-26T01:38:11.001Z,72.30
2018-11-26T01:40:45.975Z,67.07
2018-11-26T01:43:15.882Z,69.57
2018-11-26T01:45:45.768Z,70.97
2018-11-26T01:48:15.753Z,68.33
2018-11-26T01:50:45.650Z,68.27
2018-11-26T01:53:15.513Z,70.07
2018-11-26T01:55:45.414Z,65.20
2018-11-26T01:58:15.353Z,67.00
2018-11-26T02:00:45.270Z,65.27
2018-11-26T02:03:15.210Z,66.37
2018-11-26T02:05:45.145Z,67.03
2018-11-26T02:08:15.011Z,66.03
2018-11-26T02:10:44.743Z,63.33
2018-11-26T02:13:14.743Z,66.20
2018-11-26T02:15:44.752Z,63.40
2018-11-26T02:18:14.848Z,65.10
2018-11-26T02:20:44.894Z,64.87
2018-11-26T02:23:14.870Z,70.47
2018-11-26T02:25:44.925Z,65.87
2018-11-26T02:28:14.883Z,67.20
2018-11-26T02:30:44.598Z,66.90
2018-11-26T02:33:14.582Z,67.33
2018-11-26T02:35:44.553Z,65.47
2018-11-26T02:38:14.619Z,65.77
2018-11-26T02:40:44.540Z,65.23
2018-11-26T02:43:14.313Z,67.03
2018-11-26T02:45:44.288Z,63.10
2018-11-26T02:48:14.257Z,65.43
2018-11-26T02:50:44.038Z,62.97
2018-11-26T02:53:14.092Z,61.07
2018-11-26T02:55:43.999Z,64.63
2018-11-26T02:58:13.925Z,64.60
2018-11-26T03:00:46.580Z,65.77
2018-11-26T03:03:17.279Z,69.40
2018-11-26T03:05:47.213Z,64.80
2018-11-26T03:08:17.150Z,67.73
2018-11-26T03:10:46.899Z,69.07
2018-11-26T03:13:16.807Z,69.63
2018-11-26T03:15:46.774Z,66.43
2018-11-26T03:18:16.731Z,69.10
2018-11-26T03:20:46.629Z,68.03
2018-11-26T03:23:16.533Z,69.43
2018-11-26T03:25:46.467Z,67.07
2018-11-26T03:28:16.462Z,66.33
2018-11-26T03:30:46.267Z,67.30
2018-11-26T03:33:16.113Z,67.13
2018-11-26T03:35:46.211Z,65.00
2018-11-26T03:38:20.072Z,64.30
2018-11-26T03:40:50.039Z,67.23
2018-11-26T03:43:19.821Z,64.47
2018-11-26T03:45:49.740Z,63.37
2018-11-26T03:48:19.730Z,64.57
2018-11-26T03:50:49.621Z,63.67
2018-11-26T03:53:19.645Z,66.80
2018-11-26T03:55:49.668Z,63.43
2018-11-26T03:58:19.542Z,64.47
2018-11-26T04:00:53.465Z,68.67
2018-11-26T04:03:23.383Z,68.33
2018-11-26T04:05:53.340Z,64.33
2018-11-26T04:08:23.290Z,62.53
2018-11-26T04:10:53.339Z,60.87
2018-11-26T04:13:23.150Z,61.47
2018-11-26T04:15:53.101Z,66.60
2018-11-26T04:18:23.048Z,62.17
2018-11-26T04:20:53.043Z,60.73
2018-11-26T04:23:23.033Z,70.20
2018-11-26T04:25:53.065Z,67.43
2018-11-26T04:28:23.055Z,63.90
2018-11-26T04:30:52.867Z,64.13
2018-11-26T04:33:22.944Z,64.80
2018-11-26T04:35:52.916Z,67.67
2018-11-26T04:38:22.870Z,63.73
2018-11-26T04:40:52.758Z,63.70
2018-11-26T04:43:22.569Z,67.03
2018-11-26T04:45:52.527Z,66.07
2018-11-26T04:48:22.520Z,63.37
2018-11-26T04:50:52.318Z,64.33
2018-11-26T04:53:22.217Z,68.23
2018-11-26T04:55:52.573Z,69.00
2018-11-26T04:58:22.577Z,71.23
2018-11-26T05:00:52.573Z,65.83
2018-11-26T05:03:22.549Z,63.50
2018-11-26T05:05:52.533Z,66.23
2018-11-26T05:08:22.510Z,71.23
2018-11-26T05:10:52.322Z,68.63
2018-11-26T05:13:22.260Z,72.77
2018-11-26T05:15:52.294Z,69.57
2018-11-26T05:18:22.200Z,76.93
2018-11-26T05:20:52.096Z,74.00
2018-11-26T05:23:22.025Z,69.93
2018-11-26T05:25:51.940Z,73.13
2018-11-26T05:28:21.822Z,74.13
2018-11-26T05:30:51.584Z,74.10
2018-11-26T05:33:21.642Z,76.40
2018-11-26T05:35:51.779Z,71.73
2018-11-26T05:38:21.766Z,75.73
2018-11-26T05:40:52.295Z,77.57
2018-11-26T05:43:22.306Z,80.53
2018-11-26T05:45:52.141Z,73.93
2018-11-26T05:48:22.094Z,70.03
2018-11-26T05:50:51.856Z,74.57
2018-11-26T05:53:21.759Z,76.43
2018-11-26T05:55:52.145Z,73.73
2018-11-26T05:58:22.043Z,78.40
2018-11-26T06:00:52.194Z,82.63
2018-11-26T06:03:22.091Z,85.87
2018-11-26T06:05:52.205Z,75.43
2018-11-26T06:08:22.191Z,80.50
2018-11-26T06:10:51.988Z,82.00
2018-11-26T06:13:22.000Z,76.23
2018-11-26T06:15:52.096Z,78.17
2018-11-26T06:18:22.710Z,75.33
2018-11-26T06:20:52.832Z,76.13
2018-11-26T06:23:22.725Z,77.80
2018-11-26T06:25:53.035Z,79.67
2018-11-26T06:28:22.933Z,80.40
2018-11-26T06:30:52.769Z,79.50
2018-11-26T06:33:22.708Z,76.53
2018-11-26T06:35:52.806Z,79.23
2018-11-26T06:38:22.790Z,79.87
2018-11-26T06:40:52.658Z,75.00
2018-11-26T06:43:22.655Z,80.07
2018-11-26T06:45:52.764Z,81.50
2018-11-26T06:48:22.811Z,82.97
2018-11-26T06:50:52.640Z,83.60
2018-11-26T06:53:22.718Z,78.70
2018-11-26T06:55:52.837Z,79.57
2018-11-26T06:58:22.926Z,76.27
2018-11-26T07:00:52.978Z,77.50
2018-11-26T07:03:22.995Z,75.63
2018-11-26T07:05:52.836Z,78.30
2018-11-26T07:08:22.881Z,79.87
2018-11-26T07:10:52.767Z,84.40
2018-11-26T07:13:22.613Z,81.90
2018-11-26T07:15:52.554Z,83.00
2018-11-26T07:18:22.568Z,76.83
2018-11-26T07:20:52.535Z,80.87
2018-11-26T07:23:22.559Z,74.73
2018-11-26T07:25:52.609Z,84.73
2018-11-26T07:28:22.799Z,84.37
2018-11-26T07:30:52.648Z,88.67
2018-11-26T07:33:22.691Z,86.87
2018-11-26T07:35:52.640Z,83.97
2018-11-26T07:38:22.643Z,77.17
2018-11-26T07:40:52.718Z,80.73
2018-11-26T07:43:22.770Z,77.43
2018-11-26T07:45:52.920Z,73.20
2018-11-26T07:48:22.969Z,79.47
2018-11-26T07:50:52.766Z,82.43
2018-11-26T07:53:22.851Z,81.73
2018-11-26T07:55:52.762Z,77.77
2018-11-26T07:58:22.871Z,81.20
2018-11-26T08:00:52.930Z,80.67
2018-11-26T08:03:23.008Z,65.17
2018-11-26T08:05:53.164Z,71.33
2018-11-26T08:08:23.093Z,77.20
2018-11-26T08:10:53.244Z,71.40
2018-11-26T08:13:23.402Z,79.33
2018-11-26T08:15:53.275Z,82.20
2018-11-26T08:18:23.370Z,62.40
2018-11-26T08:20:53.434Z,72.23
2018-11-26T08:23:23.634Z,70.13
2018-11-26T08:25:54.352Z,79.40
2018-11-26T08:28:24.414Z,76.10
2018-11-26T08:30:54.330Z,81.70
2018-11-26T08:33:24.346Z,67.37
2018-11-26T08:35:59.595Z,80.73
2018-11-26T08:38:34.878Z,80.67
2018-11-26T08:41:09.223Z,73.87
2018-11-26T08:43:50.381Z,69.87
2018-11-26T08:46:25.587Z,73.47
2018-11-26T08:49:00.867Z,67.27
2018-11-26T08:51:31.022Z,73.50
2018-11-26T08:54:01.141Z,70.53
2018-11-26T08:56:31.339Z,77.63
2018-11-26T08:59:01.472Z,83.40
2018-11-26T09:01:39.618Z,85.00
2018-11-26T09:04:10.746Z,84.27
2018-11-26T09:06:41.862Z,76.23
2018-11-26T09:09:11.694Z,73.70
2018-11-26T09:11:41.589Z,76.97
2018-11-26T09:14:11.568Z,76.10
2018-11-26T09:16:41.694Z,77.57
2018-11-26T09:19:11.590Z,88.57
2018-11-26T09:21:41.758Z,82.93
2018-11-26T09:24:11.646Z,76.53
2018-11-26T09:26:41.704Z,65.67
2018-11-26T09:29:11.741Z,60.57
2018-11-26T09:31:41.618Z,65.50
2018-11-26T09:34:11.686Z,81.80
2018-11-26T09:36:41.954Z,77.30
2018-11-26T09:39:12.835Z,82.07
2018-11-26T09:41:42.849Z,76.63
2018-11-26T09:44:12.673Z,78.93
2018-11-26T09:46:42.901Z,78.40
2018-11-26T09:49:12.847Z,68.30
2018-11-26T09:51:42.752Z,62.33
2018-11-26T09:54:12.683Z,76.73
2018-11-26T09:56:42.696Z,62.63
2018-11-26T09:59:12.728Z,71.07
2018-11-26T10:01:42.788Z,67.63
2018-11-26T10:04:12.715Z,58.17
2018-11-26T10:06:42.675Z,62.50
2018-11-26T10:09:12.758Z,67.67
2018-11-26T10:11:42.592Z,68.50
2018-11-26T10:14:12.524Z,59.17
2018-11-26T10:16:42.672Z,58.20
2018-11-26T10:19:12.663Z,58.30
2018-11-26T10:21:42.688Z,58.27
2018-11-26T10:24:12.622Z,56.63
2018-11-26T10:26:42.744Z,65.97
2018-11-26T10:29:12.911Z,64.90
2018-11-26T10:31:42.846Z,62.43
2018-11-26T10:34:12.984Z,63.60
2018-11-26T10:36:42.918Z,50.20
2018-11-26T10:39:13.022Z,54.37
2018-11-26T10:41:43.059Z,64.97
2018-11-26T10:44:13.178Z,58.90
2018-11-26T10:46:43.234Z,63.17
2018-11-26T10:49:13.193Z,59.73
2018-11-26T10:51:43.031Z,58.00
2018-11-26T10:54:13.190Z,59.50
2018-11-26T10:56:43.094Z,60.30
2018-11-26T10:59:13.269Z,64.67
2018-11-26T11:01:47.319Z,59.57
2018-11-26T11:04:17.344Z,64.27
2018-11-26T11:06:47.260Z,58.33
2018-11-26T11:09:17.189Z,64.23
2018-11-26T11:11:47.058Z,67.23
2018-11-26T11:14:17.208Z,64.23
2018-11-26T11:16:47.152Z,59.37
2018-11-26T11:19:17.153Z,64.03
2018-11-26T11:21:47.191Z,64.20
2018-11-26T11:24:17.326Z,65.83
2018-11-26T11:26:47.340Z,68.80
2018-11-26T11:29:17.440Z,55.67
2018-11-26T11:31:47.374Z,61.50
2018-11-26T11:34:17.588Z,62.83
2018-11-26T11:36:47.893Z,70.37
2018-11-26T11:39:17.820Z,66.47
2018-11-26T11:41:47.992Z,67.77
2018-11-26T11:44:22.108Z,71.00
2018-11-26T11:46:52.096Z,69.97
2018-11-26T11:49:22.151Z,69.53
2018-11-26T11:51:52.062Z,70.27
2018-11-26T11:54:22.040Z,69.23
2018-11-26T11:56:52.098Z,66.53
2018-11-26T11:59:21.991Z,59.53
2018-11-26T12:01:52.007Z,65.43
2018-11-26T12:04:22.162Z,70.37
2018-11-26T12:06:52.418Z,71.27
2018-11-26T12:09:22.589Z,68.80
2018-11-26T12:11:52.550Z,62.43
2018-11-26T12:14:22.615Z,58.33
2018-11-26T12:16:52.765Z,60.53
2018-11-26T12:19:22.704Z,64.30
2018-11-26T12:21:52.830Z,69.83
2018-11-26T12:24:22.877Z,68.77
2018-11-26T12:26:52.981Z,69.33
2018-11-26T12:29:23.326Z,64.03
2018-11-26T12:31:53.459Z,72.23
2018-11-26T12:34:23.435Z,67.00
2018-11-26T12:36:57.753Z,67.90
2018-11-26T12:39:23.841Z,66.60
2018-11-26T12:41:54.158Z,60.87
2018-11-26T12:44:24.545Z,58.67
2018-11-26T12:46:54.845Z,60.53
2018-11-26T12:49:25.071Z,63.37
2018-11-26T12:51:54.929Z,61.43
2018-11-26T12:54:25.787Z,55.97
2018-11-26T12:56:55.150Z,63.27
2018-11-26T12:59:25.110Z,58.43
2018-11-26T13:01:55.089Z,60.00
2018-11-26T13:04:24.844Z,64.50
2018-11-26T13:06:54.679Z,62.07
2018-11-26T13:09:24.580Z,67.60
2018-11-26T13:11:54.275Z,63.53
2018-11-26T13:14:24.088Z,60.57
2018-11-26T13:16:54.083Z,58.63
2018-11-26T13:19:24.241Z,53.83
2018-11-26T13:21:54.028Z,63.27
2018-11-26T13:24:23.917Z,56.07
2018-11-26T13:26:53.822Z,55.47
2018-11-26T13:29:24.013Z,59.73
2018-11-26T13:31:53.860Z,62.93
2018-11-26T13:34:23.831Z,65.80
2018-11-26T13:36:54.012Z,64.13
2018-11-26T13:39:24.057Z,62.57
2018-11-26T13:41:54.155Z,64.13
2018-11-26T13:44:24.278Z,60.73
2018-11-26T13:46:54.360Z,63.43
2018-11-26T13:49:24.550Z,62.63
2018-11-26T13:51:54.393Z,61.90
2018-11-26T13:54:24.465Z,66.13
2018-11-26T13:56:54.581Z,62.07
2018-11-26T13:59:24.535Z,61.03
2018-11-26T14:01:54.632Z,58.50
2018-11-26T14:04:24.802Z,57.87
2018-11-26T14:06:54.845Z,59.43
2018-11-26T14:09:24.749Z,59.37
2018-11-26T14:11:54.560Z,59.13
2018-11-26T14:14:24.614Z,61.43
2018-11-26T14:16:54.626Z,60.40
2018-11-26T14:19:24.658Z,58.33
2018-11-26T14:21:54.625Z,62.70
2018-11-26T14:24:24.836Z,58.67
2018-11-26T14:26:54.822Z,63.10
2018-11-26T14:29:24.923Z,66.30
2018-11-26T14:31:54.977Z,64.50
2018-11-26T14:34:24.987Z,59.43
2018-11-26T14:36:55.026Z,65.47
2018-11-26T14:39:24.938Z,70.60
2018-11-26T14:41:54.938Z,64.50
2018-11-26T14:44:24.860Z,58.37
2018-11-26T14:46:54.893Z,55.30
2018-11-26T14:49:24.894Z,54.60
2018-11-26T14:51:54.663Z,52.17
2018-11-26T14:54:24.650Z,56.50
2018-11-26T14:56:54.617Z,51.43
2018-11-26T14:59:24.648Z,51.87
2018-11-26T15:01:54.837Z,48.70
2018-11-26T15:04:24.756Z,52.60
2018-11-26T15:06:54.771Z,47.10
2018-11-26T15:09:24.804Z,50.17
2018-11-26T15:11:54.676Z,53.07
2018-11-26T15:14:24.823Z,51.57
2018-11-26T15:16:54.905Z,47.90
2018-11-26T15:19:26.693Z,48.77
2018-11-26T15:21:56.776Z,49.00
2018-11-26T15:24:26.949Z,44.53
2018-11-26T15:26:57.069Z,45.43
2018-11-26T15:29:27.242Z,44.77
2018-11-26T15:31:57.146Z,42.73
2018-11-26T15:34:27.339Z,46.20
2018-11-26T15:36:57.518Z,46.03
2018-11-26T15:39:27.700Z,48.70
2018-11-26T15:41:57.590Z,48.17
2018-11-26T15:44:27.508Z,51.97
2018-11-26T15:46:57.312Z,47.93
2018-11-26T15:49:27.266Z,51.40
2018-11-26T15:51:57.221Z,49.03
2018-11-26T15:54:27.762Z,45.63
2018-11-26T15:56:57.711Z,48.60
2018-11-26T15:59:27.771Z,49.87
2018-11-26T16:01:57.679Z,51.67
2018-11-26T16:04:27.710Z,54.27
2018-11-26T16:06:57.867Z,54.37
2018-11-26T16:09:27.901Z,56.23
2018-11-26T16:11:57.700Z,54.83
2018-11-26T16:14:27.598Z,51.60
2018-11-26T16:16:57.484Z,51.87
2018-11-26T16:19:27.431Z,51.60
2018-11-26T16:21:57.454Z,52.47
2018-11-26T16:24:27.495Z,54.77
2018-11-26T16:26:57.474Z,51.77
2018-11-26T16:29:27.356Z,51.83
2018-11-26T16:31:57.234Z,53.37
2018-11-26T16:34:27.385Z,57.83
2018-11-26T16:36:57.473Z,60.60
2018-11-26T16:39:27.502Z,62.27
2018-11-26T16:41:57.634Z,61.10
2018-11-26T16:44:27.616Z,58.57
2018-11-26T16:46:57.415Z,56.97
2018-11-26T16:49:27.409Z,54.00
2018-11-26T16:51:57.188Z,51.10
2018-11-26T16:54:27.043Z,50.93
2018-11-26T16:56:57.046Z,53.67
2018-11-26T16:59:26.988Z,43.73
2018-11-26T17:01:56.963Z,49.10
2018-11-26T17:04:26.923Z,48.73
2018-11-26T17:06:56.898Z,45.37
2018-11-26T17:09:26.917Z,50.27
2018-11-26T17:11:56.738Z,53.87
2018-11-26T17:14:26.753Z,58.17
2018-11-26T17:16:56.593Z,75.17
2018-11-26T17:19:26.500Z,70.87
2018-11-26T17:21:56.413Z,69.73
2018-11-26T17:24:26.558Z,66.17
2018-11-26T17:26:56.640Z,72.90
2018-11-26T17:29:26.759Z,68.63
2018-11-26T17:31:56.625Z,71.60
2018-11-26T17:34:26.742Z,69.37
2018-11-26T17:36:57.000Z,72.17
2018-11-26T17:39:27.071Z,65.60
2018-11-26T17:41:57.211Z,56.47
2018-11-26T17:44:27.302Z,54.57
2018-11-26T17:46:57.135Z,53.97
2018-11-26T17:49:27.192Z,51.57
2018-11-26T17:51:57.010Z,53.23
2018-11-26T17:54:27.039Z,53.73
2018-11-26T17:56:57.087Z,52.27
2018-11-26T17:59:27.196Z,51.60
2018-11-26T18:01:57.282Z,50.77
2018-11-26T18:04:27.353Z,53.10
2018-11-26T18:06:57.488Z,52.37
2018-11-26T18:09:27.636Z,53.70
2018-11-26T18:11:57.395Z,51.63
2018-11-26T18:14:27.823Z,55.00
2018-11-26T18:16:57.689Z,57.40
2018-11-26T18:19:27.818Z,55.90
2018-11-26T18:21:58.015Z,55.27
2018-11-26T18:24:28.037Z,54.80
2018-11-26T18:26:58.069Z,59.07
2018-11-26T18:29:28.062Z,59.47
2018-11-26T18:34:59.577Z,62.37
2018-11-26T18:37:29.702Z,57.97
2018-11-26T18:39:59.756Z,63.30
2018-11-26T18:42:29.716Z,64.07
2018-11-26T18:44:59.707Z,65.33
2018-11-26T18:47:29.562Z,70.47
2018-11-26T18:49:59.374Z,73.20
2018-11-26T18:52:29.140Z,76.73
2018-11-26T18:54:59.185Z,76.60
2018-11-26T18:57:29.115Z,72.67
2018-11-26T18:59:59.154Z,73.97
2018-11-26T19:02:29.220Z,71.63
2018-11-26T19:04:59.372Z,73.43
2018-11-26T19:07:29.352Z,72.37
2018-11-26T19:09:59.185Z,65.27
2018-11-26T19:12:28.949Z,68.97
2018-11-26T19:14:59.342Z,64.47
2018-11-26T19:17:29.594Z,62.30
2018-11-26T19:19:59.611Z,57.53
2018-11-26T19:22:29.828Z,55.47
2018-11-26T19:24:59.899Z,55.37
2018-11-26T19:27:30.021Z,54.80
2018-11-26T19:29:59.862Z,55.17
2018-11-26T19:32:29.707Z,53.87
2018-11-26T19:34:59.762Z,54.73
2018-11-26T19:37:30.010Z,52.57
2018-11-26T19:40:00.753Z,56.10
2018-11-26T19:42:30.956Z,58.23
2018-11-26T19:45:01.041Z,61.03
2018-11-26T19:47:30.951Z,62.83
2018-11-26T19:50:02.468Z,68.13
2018-11-26T19:52:31.056Z,68.17
2018-11-26T19:55:01.230Z,71.97
2018-11-26T19:57:31.438Z,64.67
2018-11-26T20:00:01.424Z,65.20
2018-11-26T20:02:31.804Z,60.80
2018-11-26T20:05:02.771Z,57.43
2018-11-26T20:07:33.211Z,52.20
2018-11-26T20:10:03.094Z,61.90
2018-11-26T20:12:33.001Z,66.27
2018-11-26T20:15:03.293Z,66.20
2018-11-26T20:17:33.245Z,63.77
2018-11-26T20:20:04.309Z,66.37
2018-11-26T20:22:33.550Z,64.60
2018-11-26T20:25:03.670Z,63.63
2018-11-26T20:27:34.099Z,62.20
2018-11-26T20:30:04.033Z,63.37
2018-11-26T20:32:33.941Z,65.73
2018-11-26T20:35:04.138Z,62.20
2018-11-26T20:37:34.618Z,60.00
2018-11-26T20:40:06.116Z,57.93
2018-11-26T20:42:36.242Z,59.60
2018-11-26T20:45:12.548Z,54.33
2018-11-26T20:47:42.592Z,55.87
2018-11-26T20:50:26.380Z,55.30
2018-11-26T20:52:56.308Z,53.53
2018-11-26T20:55:26.893Z,53.57
2018-11-26T20:57:57.484Z,52.47
2018-11-26T21:00:28.960Z,54.37
2018-11-26T21:03:05.934Z,54.43
2018-11-26T21:05:36.316Z,51.90
2018-11-26T21:08:06.664Z,53.63
2018-11-26T21:10:36.671Z,53.17
2018-11-26T21:13:07.091Z,54.90
2018-11-26T21:15:37.269Z,51.20
2018-11-26T21:18:13.709Z,53.00
2018-11-26T21:20:47.238Z,51.77
2018-11-26T21:23:33.767Z,50.10
2018-11-26T21:26:05.637Z,52.37
2018-11-26T21:28:35.734Z,54.60
2018-11-26T21:31:06.097Z,51.97
2018-11-26T21:33:36.255Z,54.23
2018-11-26T21:36:06.574Z,54.37
2018-11-26T21:38:38.792Z,52.87
2018-11-26T21:41:08.923Z,51.80
2018-11-26T21:43:38.984Z,53.23
2018-11-26T21:46:09.465Z,53.20
2018-11-26T21:48:39.650Z,54.07
2018-11-26T21:51:09.506Z,51.03
2018-11-26T21:53:39.331Z,50.83
2018-11-26T21:56:09.433Z,50.17
2018-11-26T21:58:39.451Z,52.23
2018-11-26T22:07:58.072Z,51.57
2018-11-26T22:10:27.906Z,51.40
2018-11-26T22:12:57.769Z,49.70
2018-11-26T22:15:27.823Z,50.57
2018-11-26T22:17:57.683Z,51.17
2018-11-26T22:20:29.324Z,51.90
2018-11-26T22:22:59.404Z,51.77
2018-11-26T22:25:29.364Z,50.33
2018-11-26T22:27:59.504Z,51.07
2018-11-26T22:30:32.923Z,51.10
2018-11-26T22:33:02.842Z,49.17
2018-11-26T22:35:33.000Z,49.53
2018-11-26T22:38:03.122Z,46.97
2018-11-26T22:40:33.161Z,47.40
2018-11-26T22:43:03.317Z,46.53
2018-11-26T22:45:34.276Z,49.73
2018-11-26T22:48:07.841Z,49.30
2018-11-26T22:50:38.694Z,50.80
2018-11-26T22:53:09.605Z,46.97
2018-11-26T22:55:39.544Z,46.70
2018-11-26T22:58:11.879Z,48.83
2018-11-26T23:00:51.204Z,50.27
2018-11-26T23:03:22.610Z,53.57
2018-11-26T23:05:52.529Z,53.10
2018-11-26T23:08:22.454Z,51.97
2018-11-26T23:10:52.226Z,52.43
2018-11-26T23:13:22.068Z,52.20
2018-11-26T23:15:52.165Z,55.47
2018-11-26T23:18:21.968Z,61.80
2018-11-26T23:20:52.143Z,60.60
2018-11-26T23:23:22.180Z,55.53
2018-11-26T23:25:52.460Z,60.20
2018-11-26T23:28:22.421Z,55.93
2018-11-26T23:30:52.223Z,53.40
2018-11-26T23:33:21.998Z,49.97
2018-11-26T23:35:51.962Z,52.53
2018-11-26T23:38:21.970Z,52.77
2018-11-26T23:40:51.685Z,52.37
2018-11-26T23:43:21.589Z,52.73
2018-11-26T23:45:51.531Z,50.67
2018-11-26T23:48:21.372Z,52.33
2018-11-26T23:50:51.164Z,50.77
2018-11-26T23:53:21.003Z,51.33
2018-11-26T23:55:50.966Z,52.17
2018-11-26T23:58:20.969Z,51.30
